Time;durP1;ratioP1;P1;durP2;ratioP2;P2;SDS_P1;SDS_P2;PMS_P1;PMS_P2;Temp;Humidity;BMP_temperature;BMP_pressure;BME280_temperature;BME280_humidity;BME280_pressure;Samples;Min_cycle;Max_cycle;Signal;HPM_P1;HPM_P2
2021/07/07 00:02:23;;;;;;;2.58;0.63;;;;;;;-142.37;100.00;59669.53;5055108;28;20430;-58
2021/07/07 00:04:50;;;;;;;1.35;0.60;;;;;;;-142.37;100.00;59669.53;5054843;28;20476;-58
2021/07/07 00:07:16;;;;;;;1.27;0.55;;;;;;;-142.37;100.00;59669.53;5054903;28;20528;-58
2021/07/07 00:09:41;;;;;;;1.45;0.45;;;;;;;-142.37;100.00;59669.53;5055154;28;20108;-58
2021/07/07 00:12:07;;;;;;;0.77;0.50;;;;;;;-142.37;100.00;59669.53;5054955;28;20024;-58
2021/07/07 00:14:32;;;;;;;1.08;0.60;;;;;;;-142.37;100.00;59669.53;5055013;28;20036;-58
2021/07/07 00:16:57;;;;;;;0.57;0.40;;;;;;;-142.37;100.00;59669.53;5054941;28;20108;-58
2021/07/07 00:19:23;;;;;;;1.05;0.60;;;;;;;-142.37;100.00;59669.53;5054010;28;20029;-58
2021/07/07 00:21:48;;;;;;;0.45;0.40;;;;;;;-142.37;100.00;59669.53;5054833;28;20413;-58
2021/07/07 00:24:14;;;;;;;0.68;0.40;;;;;;;-142.37;100.00;59669.53;5054582;28;20056;-58
2021/07/07 00:26:39;;;;;;;0.45;0.40;;;;;;;-142.37;100.00;59669.53;5053733;28;20028;-58
2021/07/07 00:29:04;;;;;;;0.65;0.40;;;;;;;-142.37;100.00;59669.53;5054654;28;20028;-57
2021/07/07 00:31:30;;;;;;;0.98;0.50;;;;;;;-142.37;100.00;59669.53;5054632;28;20033;-58
2021/07/07 00:33:55;;;;;;;1.35;0.60;;;;;;;-142.37;100.00;59669.53;5054420;28;20025;-58
2021/07/07 00:36:21;;;;;;;1.13;0.57;;;;;;;-142.37;100.00;59669.53;5054537;28;20021;-58
2021/07/07 00:38:46;;;;;;;0.77;0.40;;;;;;;-142.37;100.00;59669.53;5054658;28;20029;-57
2021/07/07 00:41:11;;;;;;;0.93;0.45;;;;;;;-142.37;100.00;59669.53;5054327;28;20048;-57
2021/07/07 00:43:37;;;;;;;0.50;0.50;;;;;;;-142.37;100.00;59669.53;5054197;28;20032;-58
2021/07/07 00:46:03;;;;;;;1.20;0.50;;;;;;;-142.37;100.00;59669.53;5054315;28;20460;-58
2021/07/07 00:48:28;;;;;;;1.10;0.60;;;;;;;-142.37;100.00;59669.53;5054241;28;20107;-57
2021/07/07 00:50:55;;;;;;;1.02;0.40;;;;;;;-142.37;100.00;59669.53;5051337;28;20028;-58
2021/07/07 00:53:20;;;;;;;0.98;0.60;;;;;;;-142.37;100.00;59669.53;5053645;28;20024;-58
2021/07/07 00:55:45;;;;;;;0.70;0.40;;;;;;;-142.37;100.00;59669.53;5053929;28;20374;-57
2021/07/07 00:58:11;;;;;;;1.77;0.55;;;;;;;-142.37;100.00;59669.53;5053820;28;20369;-58
2021/07/07 01:00:37;;;;;;;1.80;0.50;;;;;;;-142.37;100.00;59669.53;5054089;28;20032;-58
2021/07/07 01:03:04;;;;;;;0.95;0.60;;;;;;;-142.37;100.00;59669.53;5052552;28;20025;-58
2021/07/07 01:05:29;;;;;;;0.95;0.60;;;;;;;-142.37;100.00;59669.53;5053803;28;20535;-58
2021/07/07 01:07:55;;;;;;;0.88;0.47;;;;;;;-142.37;100.00;59669.53;5053850;28;20124;-58
2021/07/07 01:10:20;;;;;;;0.30;0.30;;;;;;;-142.37;100.00;59669.53;5053985;28;20021;-58
2021/07/07 01:12:46;;;;;;;0.43;0.40;;;;;;;-142.37;100.00;59669.53;5053913;28;20025;-58
2021/07/07 01:15:14;;;;;;;0.88;0.55;;;;;;;-142.37;100.00;59669.53;5052754;28;20108;-58
2021/07/07 01:17:40;;;;;;;1.33;0.60;;;;;;;-142.37;100.00;59669.53;5052996;28;20345;-58
2021/07/07 01:20:12;;;;;;;1.05;0.40;;;;;;;-142.37;100.00;59669.53;5053666;28;20029;-58
2021/07/07 01:22:38;;;;;;;1.60;0.40;;;;;;;-142.37;100.00;59669.53;5053785;28;20024;-57
2021/07/07 01:25:06;;;;;;;1.55;0.80;;;;;;;-142.37;100.00;59669.53;5053490;28;20418;-58
2021/07/07 01:27:32;;;;;;;1.33;0.70;;;;;;;-142.37;100.00;59669.53;5053510;28;20017;-58
2021/07/07 01:29:58;;;;;;;0.52;0.52;;;;;;;-142.37;100.00;59669.53;5052611;28;20525;-58
2021/07/07 01:32:24;;;;;;;0.55;0.43;;;;;;;-142.37;100.00;59669.53;5052654;28;20460;-58
2021/07/07 01:34:50;;;;;;;0.82;0.50;;;;;;;-142.37;100.00;59669.53;5053409;28;20032;-57
2021/07/07 01:37:16;;;;;;;0.55;0.55;;;;;;;-142.37;100.00;59669.53;5053377;28;20029;-58
2021/07/07 01:39:41;;;;;;;1.83;0.40;;;;;;;-142.37;100.00;59669.53;5050112;28;20082;-58
2021/07/07 01:42:07;;;;;;;1.27;0.80;;;;;;;-142.37;100.00;59669.53;5053202;28;20112;-58
2021/07/07 01:44:33;;;;;;;0.50;0.30;;;;;;;-142.37;100.00;59669.53;5053332;28;20092;-58
2021/07/07 01:46:58;;;;;;;1.67;0.70;;;;;;;-142.37;100.00;59669.53;5053172;28;20036;-57
2021/07/07 01:49:23;;;;;;;1.27;0.75;;;;;;;-142.37;100.00;59669.53;5053540;28;20036;-58
2021/07/07 01:51:49;;;;;;;1.95;0.50;;;;;;;-142.37;100.00;59669.53;5053223;28;20028;-58
2021/07/07 01:54:14;;;;;;;1.17;0.60;;;;;;;-142.37;100.00;59669.53;5053099;28;20431;-58
2021/07/07 01:56:40;;;;;;;1.05;0.70;;;;;;;-142.37;100.00;59669.53;5053176;28;20017;-58
2021/07/07 01:59:05;;;;;;;1.17;0.55;;;;;;;-142.37;100.00;59669.53;5052654;28;20037;-58
2021/07/07 02:01:31;;;;;;;0.65;0.40;;;;;;;-142.37;100.00;59669.53;5052785;28;20078;-58
2021/07/07 02:03:56;;;;;;;2.03;0.60;;;;;;;-142.37;100.00;59669.53;5052915;28;20368;-58
2021/07/07 02:06:22;;;;;;;0.50;0.50;;;;;;;-142.37;100.00;59669.53;5053113;28;20357;-58
2021/07/07 02:08:47;;;;;;;1.45;0.63;;;;;;;-142.37;100.00;59669.53;5053031;28;20024;-57
2021/07/07 02:11:12;;;;;;;0.65;0.55;;;;;;;-142.37;100.00;59669.53;5052798;28;20037;-58
2021/07/07 02:13:38;;;;;;;0.77;0.40;;;;;;;-142.37;100.00;59669.53;5053096;28;20108;-58
2021/07/07 02:16:04;;;;;;;1.70;0.70;;;;;;;-142.37;100.00;59669.53;5052728;28;20031;-58
2021/07/07 02:18:30;;;;;;;0.95;0.40;;;;;;;-142.37;100.00;59669.53;5053035;28;20028;-58
2021/07/07 02:20:55;;;;;;;1.30;0.60;;;;;;;-142.37;100.00;59669.53;5052883;28;20074;-58
2021/07/07 02:23:21;;;;;;;0.60;0.50;;;;;;;-142.37;100.00;59669.53;5052746;28;20029;-58
2021/07/07 02:25:46;;;;;;;0.95;0.50;;;;;;;-142.37;100.00;59669.53;5052796;28;20029;-58
2021/07/07 02:28:14;;;;;;;1.27;0.35;;;;;;;-142.37;100.00;59669.53;5052847;28;20092;-58
2021/07/07 02:30:42;;;;;;;0.60;0.40;;;;;;;-142.37;100.00;59669.53;5052887;28;20111;-57
2021/07/07 02:33:11;;;;;;;1.15;0.57;;;;;;;-142.37;100.00;59669.53;5052663;28;20070;-58
2021/07/07 02:35:38;;;;;;;0.80;0.50;;;;;;;-142.37;100.00;59669.53;5052857;28;20025;-58
2021/07/07 02:38:06;;;;;;;1.67;0.70;;;;;;;-142.37;100.00;59669.53;5052511;28;20040;-58
2021/07/07 02:40:33;;;;;;;1.10;0.55;;;;;;;-142.37;100.00;59669.53;5052759;28;20057;-58
2021/07/07 02:42:59;;;;;;;2.05;1.10;;;;;;;-142.37;100.00;59669.53;5052468;28;20024;-58
2021/07/07 02:45:27;;;;;;;1.17;0.40;;;;;;;-142.37;100.00;59669.53;5052483;28;20360;-58
2021/07/07 02:47:53;;;;;;;1.13;0.63;;;;;;;-142.37;100.00;59669.53;5052405;28;20041;-58
2021/07/07 02:50:20;;;;;;;0.47;0.47;;;;;;;-142.37;100.00;59669.53;5052611;28;20036;-58
2021/07/07 02:52:47;;;;;;;0.65;0.60;;;;;;;-142.37;100.00;59669.53;5052582;28;20507;-58
2021/07/07 02:55:14;;;;;;;0.40;0.40;;;;;;;-142.37;100.00;59669.53;5052502;28;20029;-58
2021/07/07 03:00:29;;;;;;;1.55;0.40;;;;;;;-142.37;100.00;59669.53;5052865;28;20056;-58
2021/07/07 03:03:00;;;;;;;1.30;0.60;;;;;;;-142.37;100.00;59669.53;5052719;28;20033;-58
2021/07/07 03:05:26;;;;;;;0.50;0.50;;;;;;;-142.37;100.00;59669.53;5051790;28;20025;-58
2021/07/07 03:07:51;;;;;;;0.70;0.50;;;;;;;-142.37;100.00;59669.53;5050191;28;20107;-58
2021/07/07 03:10:16;;;;;;;1.38;0.60;;;;;;;-142.37;100.00;59669.53;5052346;28;20020;-57
2021/07/07 03:12:42;;;;;;;0.30;0.30;;;;;;;-142.37;100.00;59669.53;5052477;28;20021;-58
2021/07/07 03:15:08;;;;;;;1.08;0.52;;;;;;;-142.37;100.00;59669.53;5055605;28;20017;-58
2021/07/07 03:17:33;;;;;;;1.58;0.68;;;;;;;-142.37;100.00;59669.53;5055992;28;20029;-57
2021/07/07 03:19:59;;;;;;;1.00;0.63;;;;;;;-142.37;100.00;59669.53;5055605;28;20036;-58
2021/07/07 03:22:24;;;;;;;0.85;0.40;;;;;;;-142.37;100.00;59669.53;5055929;28;20063;-58
2021/07/07 03:24:50;;;;;;;0.90;0.30;;;;;;;-142.37;100.00;59669.53;5055646;28;20494;-57
2021/07/07 03:27:15;;;;;;;1.95;0.40;;;;;;;-142.37;100.00;59669.53;5055796;28;20029;-58
2021/07/07 03:29:40;;;;;;;0.47;0.30;;;;;;;-142.37;100.00;59669.53;5055764;28;20039;-58
2021/07/07 03:32:06;;;;;;;0.65;0.20;;;;;;;-142.37;100.00;59669.53;5055623;28;20032;-57
2021/07/07 03:34:31;;;;;;;0.43;0.20;;;;;;;-142.37;100.00;59669.53;5055690;28;20017;-60
2021/07/07 03:36:57;;;;;;;0.43;0.22;;;;;;;-142.37;100.00;59669.53;5054709;28;20033;-60
2021/07/07 03:39:22;;;;;;;0.90;0.30;;;;;;;-142.37;100.00;59669.53;5054826;28;20029;-60
2021/07/07 03:41:48;;;;;;;0.60;0.20;;;;;;;-142.37;100.00;59669.53;5055544;28;20418;-60
2021/07/07 03:44:14;;;;;;;0.40;0.22;;;;;;;-142.37;100.00;59669.53;5055430;28;20375;-60
2021/07/07 03:46:39;;;;;;;0.63;0.20;;;;;;;-142.37;100.00;59669.53;5055540;28;20035;-60
2021/07/07 03:49:04;;;;;;;0.50;0.22;;;;;;;-142.37;100.00;59669.53;5055275;28;20052;-60
2021/07/07 03:51:30;;;;;;;0.60;0.13;;;;;;;-142.37;100.00;59669.53;5055275;28;20056;-60
2021/07/07 03:53:55;;;;;;;0.88;0.13;;;;;;;-142.37;100.00;59669.53;5055273;28;20017;-60
2021/07/07 03:56:20;;;;;;;1.17;0.30;;;;;;;-142.37;100.00;59669.53;5055283;28;20025;-60
2021/07/07 03:58:46;;;;;;;0.57;0.15;;;;;;;-142.37;100.00;59669.53;5054129;28;20049;-60
2021/07/07 04:01:12;;;;;;;2.08;0.20;;;;;;;-142.37;100.00;59669.53;5055027;28;20033;-60
2021/07/07 04:03:38;;;;;;;1.75;0.30;;;;;;;-142.37;100.00;59669.53;5054260;28;20029;-60
2021/07/07 04:06:04;;;;;;;0.88;0.20;;;;;;;-142.37;100.00;59669.53;5054973;28;20028;-60
2021/07/07 04:08:29;;;;;;;1.02;0.10;;;;;;;-142.37;100.00;59669.53;5055079;28;20031;-60
2021/07/07 04:10:54;;;;;;;0.30;0.10;;;;;;;-142.37;100.00;59669.53;5054894;28;20029;-60
2021/07/07 04:13:20;;;;;;;0.38;0.10;;;;;;;-142.37;100.00;59669.53;5054962;28;20033;-60
2021/07/07 04:15:45;;;;;;;0.47;0.20;;;;;;;-142.37;100.00;59669.53;5054811;28;20029;-60
2021/07/07 04:18:12;;;;;;;0.40;0.10;;;;;;;-142.37;100.00;59669.53;5054805;28;20067;-61
2021/07/07 04:20:37;;;;;;;0.52;0.20;;;;;;;-142.37;100.00;59669.53;5054066;28;20028;-61
2021/07/07 04:23:02;;;;;;;1.05;0.55;;;;;;;-142.37;100.00;59669.53;5053815;28;20440;-61
2021/07/07 04:25:28;;;;;;;1.15;0.30;;;;;;;-142.37;100.00;59669.53;5054351;28;20025;-61
2021/07/07 04:27:53;;;;;;;0.30;0.10;;;;;;;-142.37;100.00;59669.53;5054594;28;20104;-60
2021/07/07 04:30:19;;;;;;;0.22;0.22;;;;;;;-142.37;100.00;59669.53;5054325;28;20035;-60
2021/07/07 04:32:46;;;;;;;0.90;0.30;;;;;;;-142.37;100.00;59669.53;5054044;28;20083;-60
2021/07/07 04:35:13;;;;;;;1.80;0.13;;;;;;;-142.37;100.00;59669.53;5053614;28;20105;-60
2021/07/07 04:37:39;;;;;;;1.65;0.52;;;;;;;-142.37;100.00;59669.53;5054612;28;20364;-60
2021/07/07 04:40:07;;;;;;;0.50;0.25;;;;;;;-142.37;100.00;59669.53;5054215;28;20029;-60
2021/07/07 04:42:33;;;;;;;1.30;0.20;;;;;;;-142.37;100.00;59669.53;5054501;28;20029;-61
2021/07/07 04:44:58;;;;;;;0.22;0.10;;;;;;;-142.37;100.00;59669.53;5054139;28;20029;-60
2021/07/07 04:47:24;;;;;;;0.52;0.20;;;;;;;-142.37;100.00;59669.53;5054215;28;20031;-60
2021/07/07 04:49:49;;;;;;;2.38;0.30;;;;;;;-142.37;100.00;59669.53;5054245;28;20384;-60
2021/07/07 04:52:14;;;;;;;1.48;0.50;;;;;;;-142.37;100.00;59669.53;5053966;28;20472;-60
2021/07/07 04:54:40;;;;;;;0.90;0.20;;;;;;;-142.37;100.00;59669.53;5053150;28;20020;-61
2021/07/07 04:57:05;;;;;;;1.02;0.20;;;;;;;-142.37;100.00;59669.53;5053971;28;20025;-60
2021/07/07 04:59:30;;;;;;;0.85;0.10;;;;;;;-142.37;100.00;59669.53;5053963;28;20056;-61
2021/07/07 05:01:56;;;;;;;0.57;0.10;;;;;;;-142.37;100.00;59669.53;5052093;28;20072;-61
2021/07/07 05:04:21;;;;;;;1.38;0.30;;;;;;;-142.37;100.00;59669.53;5053877;28;20025;-61
2021/07/07 05:06:47;;;;;;;1.20;0.20;;;;;;;-142.37;100.00;59669.53;5053995;28;20032;-60
2021/07/07 05:09:12;;;;;;;1.58;0.28;;;;;;;-142.37;100.00;59669.53;5053837;28;20029;-60
2021/07/07 05:11:37;;;;;;;0.55;0.30;;;;;;;-142.37;100.00;59669.53;5053950;28;20025;-60
2021/07/07 05:14:03;;;;;;;0.52;0.20;;;;;;;-142.37;100.00;59669.53;5053684;28;20508;-60
2021/07/07 05:16:28;;;;;;;1.27;0.65;;;;;;;-142.37;100.00;59669.53;5053828;28;20017;-61
2021/07/07 05:18:54;;;;;;;1.92;0.38;;;;;;;-142.37;100.00;59669.53;5053746;28;20024;-61
2021/07/07 05:21:19;;;;;;;1.10;0.35;;;;;;;-142.37;100.00;59669.53;5053779;28;20032;-61
2021/07/07 05:23:45;;;;;;;0.95;0.10;;;;;;;-142.37;100.00;59669.53;5053668;28;20029;-61
2021/07/07 05:26:10;;;;;;;0.70;0.10;;;;;;;-142.37;100.00;59669.53;5053575;28;20056;-60
2021/07/07 05:28:35;;;;;;;0.55;0.10;;;;;;;-142.37;100.00;59669.53;5053680;28;20025;-60
2021/07/07 05:31:05;;;;;;;1.20;0.35;;;;;;;-142.37;100.00;59669.53;5052132;28;20029;-60
2021/07/07 05:33:35;;;;;;;0.30;0.20;;;;;;;-142.37;100.00;59669.53;5053409;28;20029;-60
2021/07/07 05:36:08;;;;;;;3.50;0.32;;;;;;;-142.37;100.00;59669.53;5051270;28;20021;-60
2021/07/07 05:38:35;;;;;;;1.40;0.40;;;;;;;-142.37;100.00;59669.53;5052435;28;20447;-61
2021/07/07 05:41:03;;;;;;;0.40;0.20;;;;;;;-142.37;100.00;59669.53;5053240;28;20116;-60
2021/07/07 05:43:30;;;;;;;0.45;0.13;;;;;;;-142.37;100.00;59669.53;5053220;28;20021;-61
2021/07/07 05:45:59;;;;;;;0.22;0.10;;;;;;;-142.37;100.00;59669.53;5053116;28;20060;-60
2021/07/07 05:48:25;;;;;;;0.73;0.52;;;;;;;-142.37;100.00;59669.53;5053228;28;20052;-60
2021/07/07 05:50:51;;;;;;;0.35;0.10;;;;;;;-142.37;100.00;59669.53;5053245;28;20522;-61
2021/07/07 05:53:16;;;;;;;0.55;0.20;;;;;;;-142.37;100.00;59669.53;5052995;28;20025;-60
2021/07/07 05:55:41;;;;;;;1.45;0.20;;;;;;;-142.37;100.00;59669.53;5053350;28;20063;-62
2021/07/07 05:58:07;;;;;;;0.98;0.30;;;;;;;-142.37;100.00;59669.53;5052838;28;20782;-61
2021/07/07 06:00:32;;;;;;;0.10;0.10;;;;;;;-142.37;100.00;59669.53;5053041;28;20074;-68
2021/07/07 06:02:58;;;;;;;0.60;0.20;;;;;;;-142.37;100.00;59669.53;5053158;28;20471;-68
2021/07/07 06:05:24;;;;;;;0.63;0.25;;;;;;;-142.37;100.00;59669.53;5053018;28;20478;-68
2021/07/07 06:07:50;;;;;;;1.00;0.38;;;;;;;-142.37;100.00;59669.53;5053200;28;20099;-68
2021/07/07 06:10:18;;;;;;;0.25;0.13;;;;;;;-142.37;100.00;59669.53;5052716;28;20124;-68
2021/07/07 06:12:44;;;;;;;1.52;0.10;;;;;;;-142.37;100.00;59669.53;5041942;28;20112;-68
2021/07/07 06:15:11;;;;;;;0.93;0.50;;;;;;;-142.37;100.00;59669.53;5033314;28;20021;-69
2021/07/07 06:17:39;;;;;;;1.13;0.30;;;;;;;-142.37;100.00;59669.53;5033063;28;20022;-68
2021/07/07 06:20:06;;;;;;;0.28;0.20;;;;;;;-142.37;100.00;59669.53;5033304;28;20040;-68
2021/07/07 06:22:32;;;;;;;0.30;0.20;;;;;;;-142.37;100.00;59669.53;5032923;28;20029;-69
2021/07/07 06:24:57;;;;;;;0.57;0.20;;;;;;;-142.37;100.00;59669.53;5033059;28;20022;-68
2021/07/07 06:27:23;;;;;;;0.45;0.10;;;;;;;-142.37;100.00;59669.53;5033099;28;20080;-67
2021/07/07 06:29:49;;;;;;;0.90;0.30;;;;;;;-142.37;100.00;59669.53;5033116;28;20026;-69
2021/07/07 06:32:14;;;;;;;0.60;0.30;;;;;;;-142.37;100.00;59669.53;5047481;28;20099;-70
2021/07/07 06:34:40;;;;;;;0.20;0.17;;;;;;;-142.37;100.00;59669.53;5052147;28;20049;-68
2021/07/07 06:37:06;;;;;;;0.93;0.15;;;;;;;-142.37;100.00;59669.53;5052812;28;20032;-68
2021/07/07 06:39:31;;;;;;;0.45;0.20;;;;;;;-142.37;100.00;59669.53;5047809;28;20033;-69
2021/07/07 06:41:57;;;;;;;0.47;0.10;;;;;;;-142.37;100.00;59669.53;5052101;28;20356;-69
2021/07/07 06:44:23;;;;;;;0.47;0.30;;;;;;;-142.37;100.00;59669.53;5052722;28;20025;-67
2021/07/07 06:46:48;;;;;;;1.58;0.30;;;;;;;-142.37;100.00;59669.53;5052778;28;20024;-69
2021/07/07 06:49:15;;;;;;;3.00;0.17;;;;;;;-142.37;100.00;59669.53;5054632;28;20506;-68
2021/07/07 06:51:40;;;;;;;1.80;0.52;;;;;;;-142.37;100.00;59669.53;5056530;28;20070;-69
2021/07/07 06:54:05;;;;;;;1.23;0.20;;;;;;;-142.37;100.00;59669.53;5055816;28;20418;-68
2021/07/07 06:56:31;;;;;;;0.73;0.20;;;;;;;-142.37;100.00;59669.53;5056098;28;20032;-67
2021/07/07 06:58:56;;;;;;;0.32;0.30;;;;;;;-142.37;100.00;59669.53;5054744;28;20598;-70
2021/07/07 07:01:21;;;;;;;0.73;0.38;;;;;;;-142.37;100.00;59669.53;5054653;28;20033;-69
2021/07/07 07:03:47;;;;;;;0.40;0.17;;;;;;;-142.37;100.00;59669.53;5055597;28;20036;-68
2021/07/07 07:06:14;;;;;;;0.98;0.45;;;;;;;-142.37;100.00;59669.53;5056195;28;20021;-69
2021/07/07 07:08:39;;;;;;;0.77;0.20;;;;;;;-142.37;100.00;59669.53;5055315;28;20021;-67
2021/07/07 07:11:05;;;;;;;0.30;0.30;;;;;;;-142.37;100.00;59669.53;5055908;28;20186;-68
2021/07/07 07:13:39;;;;;;;0.80;0.20;;;;;;;-142.37;100.00;59669.53;5055576;28;20468;-70
2021/07/07 07:16:05;;;;;;;1.02;0.43;;;;;;;-142.37;100.00;59669.53;5055292;28;20122;-68
2021/07/07 07:18:30;;;;;;;2.65;0.32;;;;;;;-142.37;100.00;59669.53;5056116;28;20507;-67
2021/07/07 07:20:56;;;;;;;0.60;0.20;;;;;;;-142.37;100.00;59669.53;5055109;28;20020;-69
2021/07/07 07:23:21;;;;;;;0.65;0.25;;;;;;;-142.37;100.00;59669.53;5056063;28;20024;-68
2021/07/07 07:25:46;;;;;;;1.42;0.50;;;;;;;-142.37;100.00;59669.53;5055509;28;20463;-67
2021/07/07 07:28:11;;;;;;;0.90;0.17;;;;;;;-142.37;100.00;59669.53;5055841;28;20020;-69
2021/07/07 07:30:37;;;;;;;0.50;0.28;;;;;;;-142.37;100.00;59669.53;5055451;28;20040;-68
2021/07/07 07:33:02;;;;;;;0.30;0.10;;;;;;;-142.37;100.00;59669.53;5055011;28;20021;-67
2021/07/07 07:35:28;;;;;;;1.50;0.68;;;;;;;-142.37;100.00;59669.53;5049948;28;20095;-69
2021/07/07 07:38:11;;;;;;;0.28;0.10;;;;;;;-142.37;100.00;59669.53;5053254;28;20020;-68
2021/07/07 07:40:40;;;;;;;0.32;0.10;;;;;;;-142.37;100.00;59669.53;5048003;28;20376;-68
2021/07/07 07:43:08;;;;;;;2.35;0.63;;;;;;;-142.37;100.00;59669.53;5035886;28;20033;-68
2021/07/07 07:45:35;;;;;;;0.98;0.25;;;;;;;-142.37;100.00;59669.53;5036695;28;20026;-69
2021/07/07 07:48:01;;;;;;;0.63;0.17;;;;;;;-142.37;100.00;59669.53;5042327;28;20024;-68
2021/07/07 07:50:27;;;;;;;0.30;0.20;;;;;;;-142.37;100.00;59669.53;5053818;28;20017;-67
2021/07/07 07:52:52;;;;;;;0.45;0.20;;;;;;;-142.37;100.00;59669.53;5053042;28;20023;-67
2021/07/07 07:55:20;;;;;;;1.05;0.30;;;;;;;-142.37;100.00;59669.53;5052248;28;20028;-68
2021/07/07 07:57:45;;;;;;;1.75;0.30;;;;;;;-142.37;100.00;59669.53;5053829;28;20045;-67
2021/07/07 08:00:18;;;;;;;0.60;0.20;;;;;;;-142.37;100.00;59669.53;5051206;28;20418;-69
2021/07/07 08:02:44;;;;;;;0.82;0.20;;;;;;;-142.37;100.00;59669.53;5051783;28;20021;-70
2021/07/07 08:05:10;;;;;;;0.52;0.10;;;;;;;-142.37;100.00;59669.53;5046750;28;20418;-69
2021/07/07 08:07:38;;;;;;;1.15;0.30;;;;;;;-142.37;100.00;59669.53;5040610;28;20040;-69
2021/07/07 08:10:04;;;;;;;0.60;0.20;;;;;;;-142.37;100.00;59669.53;5049397;28;20503;-68
2021/07/07 08:12:35;;;;;;;1.25;0.20;;;;;;;-142.37;100.00;59669.53;5045785;28;20064;-75
2021/07/07 08:15:00;;;;;;;1.42;0.30;;;;;;;-142.37;100.00;59669.53;5046271;28;20344;-68
2021/07/07 08:17:25;;;;;;;1.55;0.40;;;;;;;-142.37;100.00;59669.53;5053295;28;20039;-69
2021/07/07 08:19:51;;;;;;;0.88;0.30;;;;;;;-142.37;100.00;59669.53;5054090;28;20025;-70
2021/07/07 08:22:18;;;;;;;0.98;0.30;;;;;;;-142.37;100.00;59669.53;5054707;28;20064;-70
2021/07/07 08:24:44;;;;;;;1.15;0.65;;;;;;;-142.37;100.00;59669.53;5053532;28;20494;-70
2021/07/07 08:27:10;;;;;;;3.13;0.50;;;;;;;-142.37;100.00;59669.53;5050034;28;20025;-68
2021/07/07 08:29:37;;;;;;;0.82;0.30;;;;;;;-142.37;100.00;59669.53;5044275;28;20119;-69
2021/07/07 08:32:03;;;;;;;1.38;0.55;;;;;;;-142.37;100.00;59669.53;5049224;28;20706;-70
2021/07/07 08:34:31;;;;;;;1.13;0.38;;;;;;;-142.37;100.00;59669.53;5048887;28;20372;-75
2021/07/07 08:36:57;;;;;;;1.98;0.50;;;;;;;-142.37;100.00;59669.53;5045934;28;20060;-69
2021/07/07 08:39:24;;;;;;;2.33;0.38;;;;;;;-142.37;100.00;59669.53;5050994;28;20072;-70
2021/07/07 08:41:50;;;;;;;1.27;0.43;;;;;;;-142.37;100.00;59669.53;5049610;28;20036;-73
2021/07/07 08:44:16;;;;;;;0.50;0.25;;;;;;;-142.37;100.00;59669.53;5048472;28;20021;-67
2021/07/07 08:46:41;;;;;;;1.60;0.60;;;;;;;-142.37;100.00;59669.53;5045936;28;20395;-68
2021/07/07 08:49:07;;;;;;;0.95;0.40;;;;;;;-142.37;100.00;59669.53;5051572;28;20082;-72
2021/07/07 08:51:33;;;;;;;3.15;0.85;;;;;;;-142.37;100.00;59669.53;5053645;28;20072;-67
2021/07/07 08:54:00;;;;;;;2.83;1.15;;;;;;;-142.37;100.00;59669.53;5048653;28;20021;-68
2021/07/07 08:56:26;;;;;;;3.30;0.70;;;;;;;-142.37;100.00;59669.53;5048573;28;20021;-72
2021/07/07 08:58:52;;;;;;;3.00;1.00;;;;;;;-142.37;100.00;59669.53;5053973;28;20049;-69
2021/07/07 09:01:18;;;;;;;1.23;0.60;;;;;;;-142.37;100.00;59669.53;5048964;28;20518;-70
2021/07/07 09:03:44;;;;;;;2.05;0.80;;;;;;;-142.37;100.00;59669.53;5042292;28;20025;-71
2021/07/07 09:06:11;;;;;;;2.42;0.63;;;;;;;-142.37;100.00;59669.53;5048677;28;20064;-68
2021/07/07 09:08:39;;;;;;;1.85;0.57;;;;;;;-142.37;100.00;59669.53;5046811;28;20025;-69
2021/07/07 09:11:17;;;;;;;1.80;0.38;;;;;;;-142.37;100.00;59669.53;5050915;28;20045;-72
2021/07/07 09:13:45;;;;;;;0.57;0.30;;;;;;;-142.37;100.00;59669.53;5053362;28;20104;-70
2021/07/07 09:16:13;;;;;;;1.67;0.50;;;;;;;-142.37;100.00;59669.53;5052570;28;20017;-68
2021/07/07 09:18:39;;;;;;;4.13;0.70;;;;;;;-142.37;100.00;59669.53;5053953;28;20036;-72
2021/07/07 09:21:25;;;;;;;2.00;1.02;;;;;;;-142.37;100.00;59669.53;5034570;28;20058;-70
2021/07/07 09:23:50;;;;;;;1.55;0.75;;;;;;;-142.37;100.00;59669.53;5051169;28;20108;-65
2021/07/07 09:26:26;;;;;;;1.33;0.50;;;;;;;-142.37;100.00;59669.53;5052044;28;20582;-71
2021/07/07 09:28:51;;;;;;;1.33;0.57;;;;;;;-142.37;100.00;59669.53;5053481;28;20031;-70
2021/07/07 09:31:37;;;;;;;1.45;0.60;;;;;;;-142.37;100.00;59669.53;5053113;28;20025;-70
2021/07/07 09:34:13;;;;;;;1.13;0.30;;;;;;;-142.37;100.00;59669.53;5038370;28;20049;-69
2021/07/07 09:36:42;;;;;;;1.70;0.40;;;;;;;-142.37;100.00;59669.53;5053437;28;20033;-69
2021/07/07 09:39:07;;;;;;;1.20;0.30;;;;;;;-142.37;100.00;59669.53;5053225;28;20460;-69
2021/07/07 09:41:33;;;;;;;1.10;0.30;;;;;;;-142.37;100.00;59669.53;5047446;28;20032;-73
2021/07/07 09:44:00;;;;;;;1.52;0.30;;;;;;;-142.37;100.00;59669.53;5053355;28;20029;-68
2021/07/07 09:46:26;;;;;;;2.70;0.45;;;;;;;-142.37;100.00;59669.53;5052125;28;20029;-69
2021/07/07 09:49:04;;;;;;;2.05;0.32;;;;;;;-142.37;100.00;59669.53;5052868;28;20071;-73
2021/07/07 09:51:32;;;;;;;0.60;0.20;;;;;;;-142.37;100.00;59669.53;5053286;28;20067;-67
2021/07/07 09:54:00;;;;;;;0.55;0.40;;;;;;;-142.37;100.00;59669.53;5050346;28;20025;-69
2021/07/07 09:56:26;;;;;;;0.88;0.32;;;;;;;-142.37;100.00;59669.53;5033949;28;20029;-72
2021/07/07 09:58:51;;;;;;;0.63;0.28;;;;;;;-142.37;100.00;59669.53;5033259;28;20128;-68
2021/07/07 10:01:16;;;;;;;0.63;0.55;;;;;;;-142.37;100.00;59669.53;5032993;28;20095;-69
2021/07/07 10:03:42;;;;;;;1.98;0.40;;;;;;;-142.37;100.00;59669.53;5032985;28;20056;-72
2021/07/07 10:06:07;;;;;;;0.93;0.32;;;;;;;-142.37;100.00;59669.53;5041462;28;20043;-67
2021/07/07 10:08:34;;;;;;;1.20;0.50;;;;;;;-142.37;100.00;59669.53;5052376;28;20025;-69
2021/07/07 10:11:00;;;;;;;0.15;0.15;;;;;;;-142.37;100.00;59669.53;5053208;28;20025;-71
2021/07/07 10:13:30;;;;;;;0.45;0.20;;;;;;;-142.37;100.00;59669.53;5051866;28;20151;-66
2021/07/07 10:15:55;;;;;;;0.47;0.30;;;;;;;-142.37;100.00;59669.53;5052928;28;20016;-67
2021/07/07 10:18:22;;;;;;;0.70;0.40;;;;;;;-142.37;100.00;59669.53;5052102;28;20031;-71
2021/07/07 10:20:48;;;;;;;1.80;0.30;;;;;;;-142.37;100.00;59669.53;5051620;28;20017;-71
2021/07/07 10:23:15;;;;;;;0.10;0.10;;;;;;;-142.37;100.00;59669.53;5054660;28;20035;-66
2021/07/07 10:25:42;;;;;;;0.63;0.20;;;;;;;-142.37;100.00;59669.53;5044049;28;20029;-69
2021/07/07 10:28:11;;;;;;;0.43;0.30;;;;;;;-142.37;100.00;59669.53;5037390;28;20029;-69
2021/07/07 10:30:57;;;;;;;0.40;0.32;;;;;;;-142.37;100.00;59669.53;5040649;28;20049;-70
2021/07/07 10:33:31;;;;;;;0.73;0.20;;;;;;;-142.37;100.00;59669.53;5057021;28;20029;-67
2021/07/07 10:36:13;;;;;;;0.95;0.22;;;;;;;-142.37;100.00;59669.53;5056261;28;20082;-70
2021/07/07 10:38:39;;;;;;;0.10;0.10;;;;;;;-142.37;100.00;59669.53;5056687;28;20031;-69
2021/07/07 10:41:06;;;;;;;1.05;0.47;;;;;;;-142.37;100.00;59669.53;5055715;28;20037;-73
2021/07/07 10:43:46;;;;;;;1.58;0.50;;;;;;;-142.37;100.00;59669.53;5056023;28;20029;-68
2021/07/07 10:46:13;;;;;;;0.98;0.20;;;;;;;-142.37;100.00;59669.53;5056557;28;20064;-68
2021/07/07 10:48:45;;;;;;;1.85;0.20;;;;;;;-142.37;100.00;59669.53;5055833;28;20028;-71
2021/07/07 10:51:24;;;;;;;1.20;0.50;;;;;;;-142.37;100.00;59669.53;5055978;28;20023;-66
2021/07/07 10:53:49;;;;;;;3.60;0.70;;;;;;;-142.37;100.00;59669.53;5056595;28;20486;-67
2021/07/07 10:56:15;;;;;;;1.02;0.40;;;;;;;-142.37;100.00;59669.53;5056840;28;20033;-71
2021/07/07 10:58:43;;;;;;;0.77;0.40;;;;;;;-142.37;100.00;59669.53;5056346;28;20045;-70
2021/07/07 11:01:37;;;;;;;1.20;0.50;;;;;;;-142.37;100.00;59669.53;5055301;28;20029;-67
2021/07/07 11:04:04;;;;;;;0.25;0.22;;;;;;;-142.37;100.00;59669.53;4994598;28;20549;-70
2021/07/07 11:06:39;;;;;;;1.67;0.70;;;;;;;-142.37;100.00;59669.53;4994788;28;20049;-69
2021/07/07 11:09:16;;;;;;;1.05;0.30;;;;;;;-142.37;100.00;59669.53;4991511;28;20042;-69
2021/07/07 11:11:45;;;;;;;1.13;0.50;;;;;;;-142.37;100.00;59669.53;4990276;28;20041;-68